Skip Navigation LinksHome page > Weather > Current weather Skip Navigation Links

Current Weather

Eureka, Nunavut

For information only: do not use for flight planning or navigation.
Latest weather
Observation time Monday, December 18, 2017 6:00 AM CST
Local time Monday, December 18, 2017 6:36 AM CST
Flight conditions Visual Meteorological Conditions
Winds
Wind direction East (90°)
Wind speed 2 mph
Visibility 15 mi.
Present weather ice crystals
Sky condition
Ceiling unlimited
Sky clear
Temperature -38°F
Dewpoint -45°F
Altimeter 29.39 in.Hg
Derived measurements
Relative humidity 65%
Wind chill -38°F
Density altitude -6571 ft.
Sea-level pressure 29.40 in.Hg
METAR CWEU 181200Z 09002KT 15SM IC SKC M39/M43 A2939 RMK SLP955

Settings

Location code

InnerDrive.Weather 4.0.6144.1 Release CLR 4.0.30319.36366
Copyright ©2015 Inner Drive Technology. All rights reserved. Portions Copyright ©1986-2015 David Braverman.

Find weather

Site navigation


Skip Navigation Links

Place info

Page info

PayPal - The safer, easier way to pay online!

Return home.

Copyright ©2017 Inner Drive Technology. Purveyors of fine, hand-crafted computer software. Page printed 2017-12-18T12:36:10 UTC.